Time;durP1;ratioP1;P1;durP2;ratioP2;P2;SDS_P1;SDS_P2;PMS_P1;PMS_P2;Temp;Humidity;BMP_temperature;BMP_pressure;BME280_temperature;BME280_humidity;BME280_pressure;Samples;Min_cycle;Max_cycle;Signal;HPM_P1;HPM_P2
2022/01/16 00:04:06;;;;;;;;;;;;;;;1.03;89.66;100451.41;4994362;28;19976;-85
2022/01/16 00:06:31;;;;;;;;;;;;;;;1.14;92.40;100448.03;4993759;28;19918;-87
2022/01/16 00:08:57;;;;;;;;;;;;;;;1.20;94.36;100438.50;4989815;28;20436;-86
2022/01/16 00:11:23;;;;;;;;;;;;;;;1.25;95.84;100428.06;4992376;28;19925;-87
2022/01/16 00:13:49;;;;;;;;;;;;;;;1.28;97.04;100441.16;4991735;28;19925;-87
2022/01/16 00:16:16;;;;;;;;;;;;;;;1.32;98.07;100437.66;4993170;28;20278;-87
2022/01/16 00:18:49;;;;;;;;;;;;;;;1.41;99.21;100452.53;4994315;28;19961;-85
2022/01/16 00:21:15;;;;;;;;;;;;;;;1.53;100.00;100457.81;4993035;28;19925;-87
2022/01/16 00:23:40;;;;;;;;;;;;;;;1.72;100.00;100450.03;4992782;28;19922;-89
2022/01/16 00:26:06;;;;;;;;;;;;;;;1.88;100.00;100458.81;4989487;28;19922;-87
2022/01/16 00:28:31;;;;;;;;;;;;;;;2.04;100.00;100451.88;4985036;28;20008;-88
2022/01/16 00:30:56;;;;;;;;;;;;;;;2.14;100.00;100432.75;4990778;28;19925;-87
2022/01/16 00:33:22;;;;;;;;;;;;;;;2.30;100.00;100426.66;4988852;28;19962;-87
2022/01/16 00:35:47;;;;;;;;;;;;;;;2.41;100.00;100408.38;4990058;28;19961;-90
2022/01/16 00:38:12;;;;;;;;;;;;;;;2.52;100.00;100424.06;4988046;28;19922;-89
2022/01/16 00:40:38;;;;;;;;;;;;;;;2.61;100.00;100431.91;4987823;28;19925;-90
2022/01/16 00:43:03;;;;;;;;;;;;;;;2.69;100.00;100409.22;4989956;28;19918;-88
2022/01/16 00:45:29;;;;;;;;;;;;;;;2.76;100.00;100407.50;4992558;28;19925;-87
2022/01/16 00:47:55;;;;;;;;;;;;;;;2.85;100.00;100417.06;4991445;28;20024;-88
2022/01/16 00:50:20;;;;;;;;;;;;;;;2.89;100.00;100421.44;4987250;28;19961;-87
2022/01/16 00:52:46;;;;;;;;;;;;;;;2.96;100.00;100411.81;4986709;28;19929;-88
2022/01/16 00:55:11;;;;;;;;;;;;;;;2.99;100.00;100420.53;4991310;28;19922;-89
2022/01/16 00:57:36;;;;;;;;;;;;;;;3.07;100.00;100441.47;4993558;28;19918;-87
2022/01/16 01:00:03;;;;;;;;;;;;;;;3.11;100.00;100437.97;4992872;28;19987;-89
2022/01/16 01:02:28;;;;;;;;;;;;;;;3.19;100.00;100456.28;4992203;28;20434;-85
2022/01/16 01:04:53;;;;;;;;;;;;;;;3.22;100.00;100446.69;4986842;28;19945;-87
2022/01/16 01:07:19;;;;;;;;;;;;;;;3.28;100.00;100461.50;4993091;28;20009;-87
2022/01/16 01:09:47;;;;;;;;;;;;;;;3.33;100.00;100454.50;4990931;28;20332;-88
2022/01/16 01:12:23;;;;;;;;;;;;;;;3.39;100.00;100451.88;4990903;28;19976;-86
2022/01/16 01:15:08;;;;;;;;;;;;;;;3.44;100.00;100459.72;4990829;28;20412;-86
2022/01/16 01:17:45;;;;;;;;;;;;;;;3.48;100.00;100456.22;4992824;28;20296;-87
2022/01/16 01:20:16;;;;;;;;;;;;;;;3.52;100.00;100449.22;4992185;28;20034;-86
2022/01/16 01:22:41;;;;;;;;;;;;;;;3.58;100.00;100443.97;4990549;28;19996;-87
2022/01/16 01:25:08;;;;;;;;;;;;;;;3.61;100.00;100392.41;4992652;28;19953;-87
2022/01/16 01:27:34;;;;;;;;;;;;;;;3.63;100.00;100384.53;4992489;28;19925;-87
2022/01/16 01:30:03;;;;;;;;;;;;;;;3.69;100.00;100389.75;4993050;28;19918;-87
2022/01/16 01:32:30;;;;;;;;;;;;;;;3.72;100.00;100383.59;4992754;28;19980;-87
2022/01/16 01:34:56;;;;;;;;;;;;;;;3.78;100.00;100378.31;4991427;28;19921;-87
2022/01/16 01:37:21;;;;;;;;;;;;;;;3.82;100.00;100396.66;4992856;28;19922;-86
2022/01/16 01:39:46;;;;;;;;;;;;;;;3.87;100.00;100429.84;4991680;28;19926;-87
2022/01/16 01:42:12;;;;;;;;;;;;;;;3.90;100.00;100414.09;4992906;28;19976;-87
2022/01/16 01:52:54;;;;;;;;;;;;;;;4.03;100.00;100446.38;4990931;28;19940;-87
2022/01/16 01:55:20;;;;;;;;;;;;;;;4.05;100.00;100465.59;4986345;28;19926;-86
2022/01/16 01:57:45;;;;;;;;;;;;;;;4.30;100.00;100458.44;4990376;28;20284;-87
2022/01/16 02:00:17;;;;;;;;;;;;;;;4.19;100.00;100448.88;4993120;28;19918;-89
2022/01/16 04:16:05;;;;;;;;;;;;;;;2.88;98.68;100444.09;5106097;23;19936;-89
2022/01/16 04:18:30;;;;;;;;;;;;;;;2.81;98.17;100449.34;4994251;28;19925;-86
2022/01/16 04:20:57;;;;;;;;;;;;;;;2.73;97.77;100457.22;4993339;28;19924;-91
2022/01/16 04:23:22;;;;;;;;;;;;;;;2.68;97.74;100452.00;4993462;28;19926;-90
2022/01/16 04:25:47;;;;;;;;;;;;;;;2.59;97.53;100457.22;4993238;28;20432;-90
2022/01/16 04:28:13;;;;;;;;;;;;;;;2.52;97.55;100458.97;4994981;28;19918;-91
2022/01/16 04:30:38;;;;;;;;;;;;;;;2.53;97.35;100462.44;4993331;28;19945;-88
2022/01/16 04:33:03;;;;;;;;;;;;;;;2.48;97.21;100467.66;4994726;28;20008;-91
2022/01/16 04:35:28;;;;;;;;;;;;;;;2.43;97.02;100481.63;4995196;28;20273;-91
2022/01/16 04:37:54;;;;;;;;;;;;;;;2.39;96.83;100479.84;4995032;28;19922;-90
2022/01/16 04:40:19;;;;;;;;;;;;;;;2.32;96.62;100469.38;4994096;28;19918;-85
2022/01/16 04:45:28;;;;;;;;;;;;;;;2.24;96.23;100460.66;4993151;28;20422;-85
2022/01/16 04:47:55;;;;;;;;;;;;;;;2.20;96.04;100452.78;4994350;28;20008;-87
2022/01/16 04:50:22;;;;;;;;;;;;;;;2.13;95.99;100465.00;4993706;28;19944;-85
2022/01/16 04:52:47;;;;;;;;;;;;;;;2.11;95.91;100467.59;4993795;28;20039;-85
2022/01/16 04:55:13;;;;;;;;;;;;;;;2.12;96.01;100460.63;4992207;28;20524;-84
2022/01/16 04:57:38;;;;;;;;;;;;;;;2.06;95.63;100465.81;4993694;28;19918;-84
2022/01/16 05:00:05;;;;;;;;;;;;;;;2.07;95.33;100451.91;4992430;28;20315;-85
2022/01/16 05:02:30;;;;;;;;;;;;;;;2.03;95.23;100463.19;4992186;28;20015;-86
2022/01/16 05:04:56;;;;;;;;;;;;;;;1.99;94.91;100463.22;4993484;28;20353;-85
2022/01/16 05:07:21;;;;;;;;;;;;;;;1.98;94.77;100485.00;4993376;28;19924;-86
2022/01/16 05:09:46;;;;;;;;;;;;;;;1.94;94.70;100491.06;4993507;28;20367;-86
2022/01/16 05:12:23;;;;;;;;;;;;;;;1.90;94.47;100485.81;4993337;28;19918;-86
2022/01/16 05:17:32;;;;;;;;;;;;;;;1.86;94.05;100484.94;4992985;28;20507;-87
2022/01/16 05:19:57;;;;;;;;;;;;;;;1.83;93.83;100497.13;4993301;28;20000;-85
2022/01/16 05:22:22;;;;;;;;;;;;;;;1.83;93.42;100498.00;4992981;28;20376;-85
2022/01/16 05:24:48;;;;;;;;;;;;;;;1.75;93.05;100499.72;4993268;28;20515;-86
2022/01/16 05:27:13;;;;;;;;;;;;;;;1.74;92.87;100509.28;4991938;28;19918;-85
2022/01/16 05:29:38;;;;;;;;;;;;;;;1.71;92.60;100506.66;4991405;28;19933;-85
2022/01/16 05:32:04;;;;;;;;;;;;;;;1.66;92.42;100504.88;4992501;28;20009;-86
2022/01/16 05:34:30;;;;;;;;;;;;;;;1.63;92.04;100506.63;4992857;28;19929;-86
2022/01/16 05:36:55;;;;;;;;;;;;;;;1.67;91.97;100519.69;4992986;28;19917;-87
2022/01/16 05:39:20;;;;;;;;;;;;;;;1.60;91.68;100524.88;4992970;28;20416;-86
2022/01/16 05:41:45;;;;;;;;;;;;;;;1.59;91.44;100511.81;4992763;28;19918;-87
2022/01/16 05:44:11;;;;;;;;;;;;;;;1.58;91.23;100499.63;4990321;28;19921;-86
2022/01/16 05:46:36;;;;;;;;;;;;;;;1.51;90.90;100511.78;4992686;28;19960;-87
2022/01/16 05:49:01;;;;;;;;;;;;;;;1.47;90.61;100510.03;4992890;28;20019;-86
2022/01/16 05:51:26;;;;;;;;;;;;;;;1.47;90.34;100504.81;4991389;28;19918;-85
2022/01/16 05:53:52;;;;;;;;;;;;;;;1.45;90.19;100502.19;4992803;28;19922;-86
2022/01/16 05:56:17;;;;;;;;;;;;;;;1.45;89.89;100511.72;4991295;28;20308;-84
2022/01/16 05:58:42;;;;;;;;;;;;;;;1.45;89.63;100512.63;4991369;28;19956;-86
2022/01/16 06:01:08;;;;;;;;;;;;;;;1.38;89.23;100504.75;4991294;28;19921;-85
2022/01/16 06:03:33;;;;;;;;;;;;;;;1.36;88.96;100511.69;4992823;28;20430;-85
2022/01/16 06:05:59;;;;;;;;;;;;;;;1.38;88.82;100509.97;4992916;28;19921;-87
2022/01/16 13:55:45;;;;;;;;;;;;;;;3.66;100.00;100809.13;4948477;28;19933;-87
2022/01/16 13:58:15;;;;;;;;;;;;;;;3.72;100.00;100809.16;4952615;29;19922;-86
2022/01/16 14:00:41;;;;;;;;;;;;;;;3.78;100.00;100813.50;4953914;28;19965;-86
2022/01/16 14:03:09;;;;;;;;;;;;;;;3.82;100.00;100805.66;4954026;28;19965;-86
2022/01/16 14:05:39;;;;;;;;;;;;;;;3.88;100.00;100809.16;4954001;28;19961;-86
2022/01/16 14:08:15;;;;;;;;;;;;;;;3.94;100.00;100814.41;4934928;28;19962;-87
2022/01/16 14:10:40;;;;;;;;;;;;;;;3.97;100.00;100814.41;4953640;28;19926;-87
2022/01/16 14:13:08;;;;;;;;;;;;;;;4.02;100.00;100817.94;4953743;28;19914;-87
2022/01/16 14:15:33;;;;;;;;;;;;;;;4.05;100.00;100828.38;4936413;29;19965;-87
2022/01/16 14:18:07;;;;;;;;;;;;;;;4.08;100.00;100820.53;4936570;28;19990;-87
2022/01/16 14:20:48;;;;;;;;;;;;;;;4.14;100.00;100819.66;4936215;29;20013;-88
2022/01/16 14:23:13;;;;;;;;;;;;;;;4.17;100.00;100823.16;4933864;29;19981;-88
2022/01/16 14:25:39;;;;;;;;;;;;;;;4.21;100.00;100817.91;4953104;28;20361;-87
2022/01/16 14:28:04;;;;;;;;;;;;;;;3.72;100.00;100814.38;4953751;28;19977;-87
2022/01/16 14:30:30;;;;;;;;;;;;;;;3.00;100.00;100817.66;4953705;28;19969;-86
2022/01/16 14:32:55;;;;;;;;;;;;;;;2.69;100.00;100809.63;4953457;28;19966;-87
2022/01/16 14:35:20;;;;;;;;;;;;;;;2.58;100.00;100824.41;4953656;28;19999;-87
2022/01/16 14:37:45;;;;;;;;;;;;;;;2.47;100.00;100833.91;4966874;28;19918;-87
2022/01/16 14:40:11;;;;;;;;;;;;;;;2.35;100.00;100830.34;4936119;28;19922;-86
2022/01/16 14:42:39;;;;;;;;;;;;;;;2.31;100.00;100846.91;4953595;28;19993;-86
2022/01/16 14:45:07;;;;;;;;;;;;;;;2.24;100.00;100842.47;4953498;28;19929;-87
2022/01/16 14:47:32;;;;;;;;;;;;;;;2.16;100.00;100842.41;4936132;29;19914;-86
2022/01/16 14:49:58;;;;;;;;;;;;;;;2.15;99.19;100839.78;4935774;28;19925;-86
2022/01/16 14:52:23;;;;;;;;;;;;;;;2.10;98.43;100850.19;4951978;28;19965;-86
2022/01/16 14:54:49;;;;;;;;;;;;;;;2.06;97.68;100847.53;4934423;28;20405;-86
2022/01/16 14:57:19;;;;;;;;;;;;;;;1.99;96.83;100850.13;4952904;28;21507;-86
2022/01/16 14:59:45;;;;;;;;;;;;;;;1.93;96.01;100849.16;4953360;28;19926;-86
2022/01/16 15:02:10;;;;;;;;;;;;;;;1.87;95.13;100844.78;4953275;28;20297;-87
2022/01/16 15:04:35;;;;;;;;;;;;;;;1.82;94.35;100862.16;4956978;28;20005;-86
2022/01/16 15:07:01;;;;;;;;;;;;;;;1.78;93.53;100862.97;4956905;28;20045;-87
2022/01/16 15:09:26;;;;;;;;;;;;;;;1.75;93.01;100861.19;4938084;29;20358;-86
2022/01/16 15:11:51;;;;;;;;;;;;;;;1.72;92.42;100869.00;4939317;28;19927;-86
2022/01/16 15:14:17;;;;;;;;;;;;;;;1.65;91.77;100861.09;4939308;29;20373;-86
2022/01/16 15:16:43;;;;;;;;;;;;;;;1.61;91.24;100866.28;4956749;28;19922;-86
2022/01/16 15:19:15;;;;;;;;;;;;;;;1.56;90.66;100873.19;4956594;28;19941;-87
2022/01/16 15:22:09;;;;;;;;;;;;;;;1.55;90.01;100863.59;4939222;29;19918;-87
2022/01/16 15:24:32;;;;;;;;;;;;;;;1.48;89.41;100871.34;4954840;28;19923;-87
2022/01/16 15:26:57;;;;;;;;;;;;;;;1.47;89.13;100870.47;4956644;28;20022;-87
2022/01/16 15:29:23;;;;;;;;;;;;;;;1.43;88.73;100876.50;4939027;29;19922;-87
2022/01/16 15:31:48;;;;;;;;;;;;;;;1.39;88.62;100872.13;4956559;28;19918;-87
2022/01/16 15:34:13;;;;;;;;;;;;;;;1.38;88.29;100875.59;4939026;28;19969;-87
2022/01/16 15:36:38;;;;;;;;;;;;;;;1.35;88.07;100862.50;4938891;29;19918;-87
2022/01/16 15:39:04;;;;;;;;;;;;;;;1.27;87.92;100865.88;4937882;28;20315;-87
2022/01/16 15:41:29;;;;;;;;;;;;;;;1.29;87.69;100878.09;4956494;28;19926;-86
2022/01/16 15:43:56;;;;;;;;;;;;;;;1.30;87.78;100885.94;4956252;28;19929;-87
2022/01/16 15:46:23;;;;;;;;;;;;;;;1.26;87.71;100887.66;4956356;28;20412;-87
2022/01/16 15:48:48;;;;;;;;;;;;;;;1.22;87.40;100883.22;4956311;28;19922;-86
2022/01/16 15:51:13;;;;;;;;;;;;;;;1.20;87.10;100886.69;4956320;28;19926;-87
2022/01/16 15:53:39;;;;;;;;;;;;;;;1.14;87.02;100887.47;4954944;28;19953;-87
2022/01/16 15:56:05;;;;;;;;;;;;;;;1.18;86.87;100891.91;4954606;28;19973;-86
2022/01/16 15:58:30;;;;;;;;;;;;;;;1.12;86.76;100893.53;4955866;28;20012;-87
2022/01/16 16:00:56;;;;;;;;;;;;;;;1.13;86.77;100885.72;4955930;28;19962;-86
2022/01/16 16:03:21;;;;;;;;;;;;;;;1.09;86.57;100899.59;4956011;28;20350;-87
2022/01/16 16:05:47;;;;;;;;;;;;;;;1.08;86.53;100903.06;4937435;28;19918;-87
2022/01/16 16:08:12;;;;;;;;;;;;;;;1.07;86.64;100896.97;4953477;28;19923;-87
2022/01/16 16:10:37;;;;;;;;;;;;;;;1.10;86.53;100896.09;4935084;28;20334;-86
2022/01/16 16:13:03;;;;;;;;;;;;;;;1.05;86.50;100897.78;4953515;28;19919;-87
2022/01/16 16:15:28;;;;;;;;;;;;;;;1.04;86.42;100896.91;4953404;28;19926;-86
2022/01/16 16:17:54;;;;;;;;;;;;;;;1.00;86.48;100904.69;4954468;28;19919;-87
2022/01/16 16:20:21;;;;;;;;;;;;;;;1.03;86.58;100909.94;4954579;28;20308;-87
2022/01/16 16:23:06;;;;;;;;;;;;;;;1.01;86.55;100911.66;4953454;28;20423;-86
2022/01/16 16:25:32;;;;;;;;;;;;;;;0.97;86.42;100909.84;4954015;28;20017;-86
2022/01/16 16:27:59;;;;;;;;;;;;;;;0.94;86.40;100907.19;4954134;28;20829;-87
2022/01/16 16:30:24;;;;;;;;;;;;;;;0.97;86.40;100921.16;4954616;28;20002;-87
2022/01/16 16:32:50;;;;;;;;;;;;;;;0.95;86.18;100919.41;4954665;28;20018;-87
2022/01/16 16:35:16;;;;;;;;;;;;;;;0.94;86.27;100921.13;4954578;28;19929;-86
2022/01/16 16:37:42;;;;;;;;;;;;;;;0.95;86.32;100927.25;4953210;28;19934;-88
2022/01/16 16:40:08;;;;;;;;;;;;;;;0.92;86.20;100929.81;4954741;28;20001;-86
2022/01/16 16:42:35;;;;;;;;;;;;;;;0.91;86.01;100936.75;4952841;28;19918;-88
2022/01/16 16:45:01;;;;;;;;;;;;;;;0.94;86.14;100941.13;4954426;28;19922;-86
2022/01/16 16:47:26;;;;;;;;;;;;;;;0.92;85.97;100940.25;4954447;28;19920;-86
2022/01/16 16:49:51;;;;;;;;;;;;;;;0.87;85.94;100948.88;4954383;28;19929;-87
2022/01/16 16:52:17;;;;;;;;;;;;;;;0.87;85.84;100951.47;4954065;28;19923;-87
2022/01/16 16:54:43;;;;;;;;;;;;;;;0.84;85.68;100953.16;4953019;28;20298;-86
2022/01/16 16:57:10;;;;;;;;;;;;;;;0.87;85.78;100961.91;4953997;28;19918;-86
2022/01/16 16:59:36;;;;;;;;;;;;;;;0.82;85.67;100955.75;4953833;28;19965;-88
2022/01/16 17:02:03;;;;;;;;;;;;;;;0.82;85.74;100960.09;4952552;28;19958;-86
2022/01/16 17:04:29;;;;;;;;;;;;;;;0.81;85.62;100967.03;4953265;28;19919;-87
2022/01/16 17:06:54;;;;;;;;;;;;;;;0.79;85.58;100967.88;4936773;29;19918;-85
2022/01/16 17:09:19;;;;;;;;;;;;;;;0.78;85.54;100964.38;4951856;28;19919;-86
2022/01/16 17:11:44;;;;;;;;;;;;;;;0.78;85.51;100969.59;4953982;28;20271;-86
2022/01/16 17:14:10;;;;;;;;;;;;;;;0.78;85.23;100972.19;4954036;28;19920;-87
2022/01/16 17:16:35;;;;;;;;;;;;;;;0.77;85.41;100975.69;4954020;28;19928;-88
2022/01/16 17:19:09;;;;;;;;;;;;;;;0.76;85.27;100970.44;4953963;28;19914;-87
2022/01/16 17:21:34;;;;;;;;;;;;;;;0.74;85.26;100983.47;4952720;28;19932;-88
2022/01/16 17:24:00;;;;;;;;;;;;;;;0.71;85.16;100976.44;4935474;29;19919;-86
2022/01/16 17:26:25;;;;;;;;;;;;;;;0.69;84.96;100979.91;4953645;28;20299;-85
2022/01/16 17:28:51;;;;;;;;;;;;;;;0.70;85.13;100984.25;4953846;28;19958;-87
2022/01/16 17:31:16;;;;;;;;;;;;;;;0.68;84.93;100981.63;4953504;28;19918;-86
2022/01/16 17:33:41;;;;;;;;;;;;;;;0.70;84.64;100976.41;4953672;28;19922;-88
2022/01/16 17:36:08;;;;;;;;;;;;;;;0.65;84.67;100986.78;4953075;28;19923;-86
2022/01/16 17:38:35;;;;;;;;;;;;;;;0.66;84.40;100998.13;4934217;29;19933;-88
2022/01/16 17:41:00;;;;;;;;;;;;;;;0.61;84.27;100989.34;4949440;28;19962;-86
2022/01/16 17:43:25;;;;;;;;;;;;;;;0.63;84.22;100987.63;4968105;28;19977;-87
2022/01/16 17:45:51;;;;;;;;;;;;;;;0.58;84.06;100990.16;4935341;29;20370;-86
2022/01/16 17:48:17;;;;;;;;;;;;;;;0.61;84.15;101002.38;4953296;28;20503;-87
2022/01/16 17:50:42;;;;;;;;;;;;;;;0.61;83.99;101005.00;4967322;28;19923;-87
2022/01/16 17:53:08;;;;;;;;;;;;;;;0.58;84.19;101002.31;4966899;28;19925;-87
2022/01/16 17:55:33;;;;;;;;;;;;;;;0.59;84.13;101009.28;4935663;28;19922;-88
2022/01/16 17:57:58;;;;;;;;;;;;;;;0.56;84.00;101001.41;4952960;28;20014;-87
2022/01/16 18:00:24;;;;;;;;;;;;;;;0.57;83.82;100995.34;4935706;28;19958;-87
2022/01/16 18:02:49;;;;;;;;;;;;;;;0.61;83.76;100999.78;4953145;28;20412;-87
2022/01/16 18:05:14;;;;;;;;;;;;;;;0.57;83.52;101011.00;4953103;28;19922;-88
2022/01/16 18:07:40;;;;;;;;;;;;;;;0.56;83.38;101006.63;4951976;28;20433;-87
2022/01/16 18:10:06;;;;;;;;;;;;;;;0.57;83.27;101006.63;4952950;28;19922;-86
2022/01/16 18:12:32;;;;;;;;;;;;;;;0.53;83.10;101010.94;4952886;28;19926;-87
2022/01/16 18:14:57;;;;;;;;;;;;;;;0.53;83.12;101015.28;4951404;28;19922;-86
2022/01/16 18:17:22;;;;;;;;;;;;;;;0.53;83.18;101029.19;4952917;28;20259;-87
2022/01/16 18:19:50;;;;;;;;;;;;;;;0.56;83.23;101032.69;4952966;28;19926;-86
2022/01/16 18:22:15;;;;;;;;;;;;;;;0.49;83.15;101027.38;4934880;29;19919;-87
2022/01/16 18:24:41;;;;;;;;;;;;;;;0.51;83.27;101023.09;4934140;29;20394;-87
2022/01/16 18:27:06;;;;;;;;;;;;;;;0.51;83.21;101036.13;4953063;28;19926;-86
2022/01/16 18:29:32;;;;;;;;;;;;;;;0.47;83.25;101029.06;4934510;28;20398;-87
2022/01/16 18:31:57;;;;;;;;;;;;;;;0.53;83.24;101034.41;4952765;28;19993;-88
2022/01/16 18:34:24;;;;;;;;;;;;;;;0.55;83.21;101034.44;4952519;28;19918;-88
2022/01/16 18:36:51;;;;;;;;;;;;;;;0.51;83.27;101036.13;4951215;28;19918;-88
2022/01/16 18:39:17;;;;;;;;;;;;;;;0.53;83.31;101047.44;4954834;28;19993;-86
2022/01/16 18:41:42;;;;;;;;;;;;;;;0.52;83.36;101057.84;4956659;28;19919;-86
2022/01/16 18:44:07;;;;;;;;;;;;;;;0.54;83.46;101050.94;4956658;28;19923;-85
2022/01/16 18:46:33;;;;;;;;;;;;;;;0.51;83.42;101051.78;4956669;28;19926;-86
2022/01/16 18:48:59;;;;;;;;;;;;;;;0.56;83.51;101057.06;4956601;28;19929;-86
2022/01/16 18:51:25;;;;;;;;;;;;;;;0.53;83.48;101050.06;4956381;28;19930;-86
2022/01/16 18:53:51;;;;;;;;;;;;;;;0.56;83.37;101057.06;4955192;28;19958;-86
2022/01/16 18:56:16;;;;;;;;;;;;;;;0.55;83.20;101052.69;4956253;28;19965;-87
2022/01/16 18:58:41;;;;;;;;;;;;;;;0.59;83.23;101051.00;4971349;28;19922;-86
2022/01/16 19:01:07;;;;;;;;;;;;;;;0.59;83.18;101048.41;4971054;28;19919;-88
2022/01/16 19:03:33;;;;;;;;;;;;;;;0.53;82.97;101064.84;4956114;28;20400;-87
2022/01/16 19:05:58;;;;;;;;;;;;;;;0.56;82.93;101071.81;4955309;29;19958;-87
2022/01/16 19:08:23;;;;;;;;;;;;;;;0.55;82.63;101065.75;4954740;28;19926;-85
2022/01/16 19:10:49;;;;;;;;;;;;;;;0.52;82.46;101071.75;4955930;28;20834;-86
2022/01/16 19:13:14;;;;;;;;;;;;;;;0.53;82.40;101065.72;4938898;28;19925;-85
2022/01/16 19:15:40;;;;;;;;;;;;;;;0.53;82.46;101070.06;4938556;29;19922;-86
2022/01/16 19:18:06;;;;;;;;;;;;;;;0.49;82.34;101074.31;4955984;28;19919;-86
2022/01/16 19:20:31;;;;;;;;;;;;;;;0.51;82.15;101077.84;4948009;28;19978;-88
2022/01/16 19:22:57;;;;;;;;;;;;;;;0.48;81.97;101093.44;4937009;29;20416;-85
2022/01/16 19:25:24;;;;;;;;;;;;;;;0.50;81.74;101101.28;4955831;28;19969;-86
2022/01/16 19:27:50;;;;;;;;;;;;;;;0.50;81.52;101107.38;4938535;29;20317;-87
2022/01/16 19:30:15;;;;;;;;;;;;;;;0.47;81.55;101109.94;4938109;29;19919;-86
2022/01/16 19:32:41;;;;;;;;;;;;;;;0.50;81.45;101106.50;4955515;28;19973;-86
2022/01/16 19:35:07;;;;;;;;;;;;;;;0.52;81.30;101103.06;4955544;28;19933;-86
2022/01/16 19:37:32;;;;;;;;;;;;;;;0.51;81.21;101109.16;4936178;28;20550;-86
2022/01/16 19:39:58;;;;;;;;;;;;;;;0.50;81.10;101111.72;4955616;28;20384;-86
2022/01/16 19:42:24;;;;;;;;;;;;;;;0.45;80.83;101115.97;4954785;28;19927;-85
2022/01/16 19:44:50;;;;;;;;;;;;;;;0.50;80.79;101117.81;4955413;28;19925;-85
2022/01/16 19:47:19;;;;;;;;;;;;;;;0.48;80.77;101111.69;4955454;28;19922;-87
2022/01/16 19:49:44;;;;;;;;;;;;;;;0.53;80.78;101112.66;4953737;28;19930;-85
2022/01/16 19:52:10;;;;;;;;;;;;;;;0.47;80.66;101115.16;4954774;28;19918;-87
2022/01/16 19:54:36;;;;;;;;;;;;;;;0.49;80.61;101113.44;4936454;28;19938;-88
2022/01/16 19:57:01;;;;;;;;;;;;;;;0.51;80.39;101123.91;4955490;28;20414;-86
2022/01/16 19:59:26;;;;;;;;;;;;;;;0.51;80.27;101123.91;4970102;28;20010;-86
2022/01/16 20:01:52;;;;;;;;;;;;;;;0.48;80.16;101123.84;4955308;28;20370;-87
2022/01/16 20:04:18;;;;;;;;;;;;;;;0.50;80.13;101138.69;4955021;28;19934;-85
2022/01/16 20:06:43;;;;;;;;;;;;;;;0.52;80.16;101159.59;4954547;28;20001;-85
2022/01/16 20:09:09;;;;;;;;;;;;;;;0.53;79.92;101150.91;4936414;29;20021;-86
2022/01/16 20:11:34;;;;;;;;;;;;;;;0.57;79.69;101157.94;4954040;28;20370;-86
2022/01/16 20:13:59;;;;;;;;;;;;;;;0.54;79.57;101161.38;4954550;28;19970;-86
2022/01/16 20:16:25;;;;;;;;;;;;;;;0.60;79.51;101165.81;4952599;28;19926;-85
2022/01/16 20:18:51;;;;;;;;;;;;;;;0.60;79.63;101160.59;4954304;28;19970;-85
2022/01/16 20:21:16;;;;;;;;;;;;;;;0.59;79.31;101157.97;4937071;29;20547;-85
2022/01/16 20:23:42;;;;;;;;;;;;;;;0.63;79.37;101165.03;4952721;28;20333;-86
2022/01/16 20:26:07;;;;;;;;;;;;;;;0.63;79.43;101165.03;4937248;29;20013;-87
2022/01/16 20:28:33;;;;;;;;;;;;;;;0.61;79.33;101159.78;4954444;28;19927;-86
2022/01/16 20:30:58;;;;;;;;;;;;;;;0.67;79.10;101166.81;4954000;28;19923;-85
2022/01/16 20:33:23;;;;;;;;;;;;;;;0.66;79.24;101160.72;4953646;28;19922;-85
2022/01/16 20:35:48;;;;;;;;;;;;;;;0.65;78.96;101158.97;4953025;28;19925;-86
2022/01/16 20:38:14;;;;;;;;;;;;;;;0.66;78.81;101154.66;4952981;28;20009;-85
2022/01/16 20:40:41;;;;;;;;;;;;;;;0.70;78.79;101154.75;4969231;28;19957;-87
2022/01/16 20:43:06;;;;;;;;;;;;;;;0.68;78.73;101159.03;4968707;28;20321;-87
2022/01/16 20:45:32;;;;;;;;;;;;;;;0.68;78.54;101168.59;4954291;28;19926;-86
2022/01/16 20:47:58;;;;;;;;;;;;;;;0.72;78.56;101157.38;4954446;28;19919;-85
2022/01/16 20:50:23;;;;;;;;;;;;;;;0.69;78.43;101155.56;4935911;28;20009;-85
2022/01/16 20:52:48;;;;;;;;;;;;;;;0.71;78.29;101147.78;4953106;28;20031;-87
2022/01/16 20:55:14;;;;;;;;;;;;;;;0.74;78.24;101153.06;4954297;28;19923;-86
2022/01/16 20:57:39;;;;;;;;;;;;;;;0.75;78.13;101153.94;4936544;28;19925;-86
2022/01/16 21:00:06;;;;;;;;;;;;;;;0.74;77.95;101153.06;4936504;28;19925;-86
2022/01/16 21:02:31;;;;;;;;;;;;;;;0.74;77.99;101147.84;4945786;28;20397;-86
2022/01/16 21:04:57;;;;;;;;;;;;;;;0.77;77.88;101153.13;4952181;28;19958;-85
2022/01/16 21:07:22;;;;;;;;;;;;;;;0.78;78.08;101148.78;4952924;28;19969;-86
2022/01/16 21:09:48;;;;;;;;;;;;;;;0.79;77.98;101148.81;4952061;28;19929;-86
2022/01/16 21:12:13;;;;;;;;;;;;;;;0.83;78.18;101134.97;4953857;29;20058;-86
2022/01/16 21:14:39;;;;;;;;;;;;;;;0.83;78.26;101148.03;4952649;28;19937;-86
2022/01/16 21:17:05;;;;;;;;;;;;;;;0.85;78.38;101161.97;4953724;28;20396;-85
2022/01/16 21:19:32;;;;;;;;;;;;;;;0.81;78.03;101165.34;4953210;28;20047;-85
2022/01/16 21:21:58;;;;;;;;;;;;;;;0.84;77.89;101170.63;4952171;28;19966;-85
2022/01/16 21:24:24;;;;;;;;;;;;;;;0.82;77.72;101179.31;4952470;28;19958;-85
2022/01/16 21:26:49;;;;;;;;;;;;;;;0.85;77.73;101176.75;4953591;28;19923;-88
2022/01/16 21:29:15;;;;;;;;;;;;;;;0.81;77.46;101154.91;4967727;28;19954;-86
2022/01/16 21:31:40;;;;;;;;;;;;;;;0.86;77.39;101150.69;4935573;28;19927;-86
2022/01/16 21:34:06;;;;;;;;;;;;;;;0.81;77.15;101154.91;4953516;28;19918;-85
2022/01/16 21:36:31;;;;;;;;;;;;;;;0.84;77.18;101154.09;4924120;29;19985;-86
2022/01/16 21:38:57;;;;;;;;;;;;;;;0.80;76.82;101157.50;4952401;28;19925;-86
2022/01/16 21:41:22;;;;;;;;;;;;;;;0.83;76.74;101166.28;4949867;28;19929;-86
2022/01/16 21:43:47;;;;;;;;;;;;;;;0.83;76.62;101171.50;4953072;28;19925;-86
2022/01/16 21:46:13;;;;;;;;;;;;;;;0.88;76.55;101167.25;4953466;28;19922;-85
2022/01/16 21:48:38;;;;;;;;;;;;;;;0.85;76.64;101161.09;4953044;28;20425;-86
2022/01/16 21:51:04;;;;;;;;;;;;;;;0.89;76.63;101163.78;4952797;28;20336;-85
2022/01/16 21:53:29;;;;;;;;;;;;;;;0.84;76.58;101174.97;4950426;28;19918;-86
2022/01/16 21:55:55;;;;;;;;;;;;;;;0.89;76.61;101178.56;4953039;28;19933;-86
2022/01/16 21:58:21;;;;;;;;;;;;;;;0.89;76.42;101169.03;4953073;28;20312;-86
2022/01/16 22:00:47;;;;;;;;;;;;;;;0.87;76.17;101178.53;4952699;28;19926;-86
2022/01/16 22:03:14;;;;;;;;;;;;;;;0.89;76.05;101179.47;4967581;28;19922;-85
2022/01/16 22:05:40;;;;;;;;;;;;;;;0.92;76.01;101176.00;4967911;28;19918;-86
2022/01/16 22:08:05;;;;;;;;;;;;;;;0.92;76.12;101182.97;4966839;28;19918;-86
2022/01/16 22:10:30;;;;;;;;;;;;;;;0.87;75.96;101181.13;4967953;28;19973;-86
2022/01/16 22:12:56;;;;;;;;;;;;;;;0.94;75.79;101169.06;4952184;28;20350;-86
2022/01/16 22:15:22;;;;;;;;;;;;;;;0.93;75.48;101175.16;4953262;28;19958;-86
2022/01/16 22:17:47;;;;;;;;;;;;;;;0.93;75.61;101187.34;4953016;28;19923;-85
2022/01/16 22:20:12;;;;;;;;;;;;;;;0.97;75.49;101181.31;4935672;29;19919;-86
